createdAt,value
2018-08-31T00:02:27.568Z,9.43
2018-08-31T00:09:18.234Z,8.80
2018-08-31T00:12:07.864Z,9.77
2018-08-31T00:14:36.928Z,10.17
2018-08-31T00:17:05.398Z,10.10
2018-08-31T00:19:33.722Z,10.50
2018-08-31T00:22:02.001Z,10.77
2018-08-31T00:24:41.458Z,10.70
2018-08-31T00:27:21.695Z,10.97
2018-08-31T00:30:04.263Z,10.70
2018-08-31T00:33:08.636Z,11.03
2018-08-31T00:36:38.718Z,12.57
2018-08-31T00:39:23.614Z,11.53
2018-08-31T00:44:10.307Z,11.73
2018-08-31T00:46:38.559Z,10.40
2018-08-31T00:49:08.329Z,10.80
2018-08-31T00:51:38.861Z,9.87
2018-08-31T00:54:08.142Z,9.70
2018-08-31T00:56:36.427Z,9.73
2018-08-31T00:59:05.113Z,9.97
2018-08-31T01:01:33.385Z,9.93
2018-08-31T01:04:01.670Z,9.63
2018-08-31T01:06:30.293Z,11.23
2018-08-31T01:08:58.594Z,10.10
2018-08-31T01:11:26.908Z,8.87
2018-08-31T01:13:55.206Z,9.00
2018-08-31T01:16:24.520Z,9.00
2018-08-31T01:18:52.785Z,10.07
2018-08-31T01:21:21.318Z,9.60
2018-08-31T01:23:49.590Z,9.97
2018-08-31T01:26:18.517Z,10.30
2018-08-31T01:28:47.245Z,9.37
2018-08-31T01:31:15.893Z,10.20
2018-08-31T01:33:44.226Z,10.27
2018-08-31T01:36:12.954Z,10.57
2018-08-31T01:38:42.607Z,10.83
2018-08-31T01:41:10.865Z,10.23
2018-08-31T01:43:40.017Z,8.70
2018-08-31T01:46:08.546Z,8.03
2018-08-31T01:48:37.462Z,7.97
2018-08-31T01:51:11.489Z,8.63
2018-08-31T01:53:40.326Z,9.40
2018-08-31T01:56:08.649Z,8.97
2018-08-31T01:58:37.066Z,9.70
2018-08-31T02:01:05.679Z,9.93
2018-08-31T02:03:33.925Z,10.20
2018-08-31T02:06:02.677Z,10.03
2018-08-31T02:08:31.089Z,9.73
2018-08-31T02:10:59.367Z,10.40
2018-08-31T02:13:27.709Z,9.63
2018-08-31T02:15:56.624Z,9.90
2018-08-31T02:18:25.638Z,9.60
2018-08-31T02:20:53.898Z,10.83
2018-08-31T02:23:22.189Z,10.70
2018-08-31T02:25:50.686Z,10.60
2018-08-31T02:28:18.945Z,11.83
2018-08-31T02:30:47.701Z,11.83
2018-08-31T02:33:16.085Z,11.97
2018-08-31T02:35:50.272Z,11.43
2018-08-31T02:38:18.525Z,12.60
2018-08-31T02:40:47.492Z,12.83
2018-08-31T02:43:15.721Z,12.17
2018-08-31T02:45:43.982Z,13.57
2018-08-31T02:48:12.943Z,12.87
2018-08-31T02:50:41.190Z,12.53
2018-08-31T02:53:10.355Z,12.37
2018-08-31T02:55:38.646Z,12.00
2018-08-31T02:58:06.974Z,11.63
2018-08-31T03:00:35.362Z,11.13
2018-08-31T03:03:03.790Z,11.63
2018-08-31T03:05:32.333Z,11.17
2018-08-31T03:08:00.588Z,12.10
2018-08-31T03:10:28.870Z,11.70
2018-08-31T03:12:57.172Z,10.97
2018-08-31T03:15:25.937Z,11.23
2018-08-31T03:17:54.217Z,12.57
2018-08-31T03:20:22.507Z,11.80
2018-08-31T03:22:50.919Z,11.90
2018-08-31T03:25:19.174Z,12.33
2018-08-31T03:27:47.898Z,12.37
2018-08-31T03:30:16.627Z,12.53
2018-08-31T03:32:50.462Z,12.50
2018-08-31T03:35:18.704Z,12.10
2018-08-31T03:37:47.229Z,12.60
2018-08-31T03:40:15.808Z,11.37
2018-08-31T03:42:44.069Z,12.67
2018-08-31T03:45:12.595Z,13.13
2018-08-31T03:47:40.858Z,13.13
2018-08-31T03:50:09.595Z,13.17
2018-08-31T03:52:38.737Z,12.60
2018-08-31T03:55:07.272Z,14.17
2018-08-31T03:57:35.553Z,13.93
2018-08-31T04:00:04.027Z,15.20
2018-08-31T04:02:33.102Z,15.50
2018-08-31T04:05:01.940Z,13.73
2018-08-31T04:07:30.378Z,14.40
2018-08-31T04:09:59.118Z,13.77
2018-08-31T04:12:27.403Z,14.40
2018-08-31T04:14:55.976Z,14.67
2018-08-31T04:17:24.257Z,13.40
2018-08-31T04:19:52.906Z,14.77
2018-08-31T04:22:21.698Z,13.93
2018-08-31T04:24:49.971Z,14.57
2018-08-31T04:27:18.242Z,13.53
2018-08-31T04:29:46.638Z,14.00
2018-08-31T04:32:15.468Z,12.37
2018-08-31T04:34:43.738Z,12.97
2018-08-31T04:37:12.519Z,12.03
2018-08-31T04:39:41.823Z,13.30
2018-08-31T04:42:10.663Z,12.17
2018-08-31T04:44:38.943Z,12.27
2018-08-31T04:47:07.254Z,12.37
2018-08-31T04:49:35.783Z,11.90
2018-08-31T04:52:04.673Z,10.77
2018-08-31T04:54:32.930Z,11.37
2018-08-31T04:57:01.249Z,11.63
2018-08-31T04:59:29.769Z,11.27
2018-08-31T05:01:58.053Z,11.27
2018-08-31T05:04:26.391Z,12.37
2018-08-31T05:06:55.057Z,11.70
2018-08-31T05:09:23.353Z,10.73
2018-08-31T05:11:52.156Z,11.77
2018-08-31T05:14:21.257Z,11.77
2018-08-31T05:16:49.523Z,11.93
2018-08-31T05:19:19.984Z,11.97
2018-08-31T05:21:48.213Z,11.87
2018-08-31T05:24:16.544Z,11.83
2018-08-31T05:26:44.953Z,12.37
2018-08-31T05:29:13.234Z,11.33
2018-08-31T05:31:42.101Z,11.53
2018-08-31T05:34:10.382Z,11.67
2018-08-31T05:36:39.309Z,11.23
2018-08-31T05:39:10.601Z,10.60
2018-08-31T05:41:38.949Z,11.67
2018-08-31T05:44:07.358Z,11.03
2018-08-31T05:46:35.718Z,11.43
2018-08-31T05:49:04.656Z,11.37
2018-08-31T05:51:32.958Z,11.67
2018-08-31T05:54:02.816Z,10.37
2018-08-31T05:56:31.099Z,9.97
2018-08-31T05:58:59.342Z,10.10
2018-08-31T06:01:28.442Z,10.13
2018-08-31T06:03:57.433Z,9.27
2018-08-31T06:06:26.031Z,9.13
2018-08-31T06:08:54.994Z,9.67
2018-08-31T06:11:23.454Z,9.30
2018-08-31T06:13:51.873Z,9.90
2018-08-31T06:16:20.737Z,10.25
2018-08-31T06:18:49.684Z,10.50
2018-08-31T06:21:17.966Z,10.07
2018-08-31T06:23:46.213Z,9.47
2018-08-31T06:26:14.469Z,9.38
2018-08-31T06:28:42.711Z,9.30
2018-08-31T06:31:24.313Z,9.73
2018-08-31T06:33:52.762Z,9.38
2018-08-31T06:36:21.695Z,10.00
2018-08-31T06:38:50.360Z,10.25
2018-08-31T06:41:18.698Z,9.70
2018-08-31T06:43:46.977Z,9.80
2018-08-31T06:46:15.306Z,10.13
2018-08-31T06:48:43.942Z,10.53
2018-08-31T06:51:12.922Z,10.75
2018-08-31T06:53:41.638Z,10.10
2018-08-31T06:56:10.154Z,10.77
2018-08-31T06:58:38.633Z,9.20
2018-08-31T07:01:07.360Z,9.47
2018-08-31T07:03:35.963Z,9.10
2018-08-31T07:06:04.657Z,8.80
2018-08-31T07:08:32.909Z,9.20
2018-08-31T07:11:01.146Z,9.53
2018-08-31T07:13:29.446Z,9.10
2018-08-31T07:15:58.028Z,9.28
2018-08-31T07:18:26.290Z,10.75
2018-08-31T07:20:54.602Z,9.75
2018-08-31T07:23:23.053Z,9.73
2018-08-31T07:25:51.708Z,11.23
2018-08-31T07:28:20.202Z,10.93
2018-08-31T07:30:48.482Z,10.67
2018-08-31T07:33:16.794Z,10.53
2018-08-31T07:35:57.153Z,9.78
2018-08-31T07:38:25.438Z,10.88
2018-08-31T07:40:54.386Z,9.53
2018-08-31T07:43:22.850Z,10.30
2018-08-31T07:45:51.538Z,10.32
2018-08-31T07:48:23.452Z,10.38
2018-08-31T07:50:51.709Z,10.08
2018-08-31T07:53:20.626Z,10.13
2018-08-31T07:55:48.894Z,10.00
2018-08-31T07:58:17.245Z,9.53
2018-08-31T08:00:45.508Z,9.90
2018-08-31T08:03:15.335Z,9.50
2018-08-31T08:05:44.351Z,9.15
2018-08-31T08:08:12.879Z,9.50
2018-08-31T08:10:41.178Z,9.68
2018-08-31T08:13:09.420Z,9.90
2018-08-31T08:15:38.306Z,10.68
2018-08-31T08:18:06.761Z,10.18
2018-08-31T08:20:35.020Z,10.25
2018-08-31T08:23:03.308Z,10.68
2018-08-31T08:25:31.556Z,9.60
2018-08-31T08:27:59.886Z,10.35
2018-08-31T08:30:28.150Z,10.13
2018-08-31T08:32:57.002Z,9.60
2018-08-31T08:35:25.265Z,10.00
2018-08-31T08:37:53.990Z,9.20
2018-08-31T08:40:22.626Z,9.10
2018-08-31T08:42:50.874Z,10.43
2018-08-31T08:45:19.650Z,10.75
2018-08-31T08:47:48.539Z,9.65
2018-08-31T08:50:16.807Z,10.15
2018-08-31T08:52:45.802Z,9.93
2018-08-31T08:55:14.029Z,9.38
2018-08-31T08:57:42.228Z,9.35
2018-08-31T09:00:11.044Z,9.08
2018-08-31T09:02:39.232Z,8.98
2018-08-31T09:05:07.967Z,10.08
2018-08-31T09:07:36.203Z,9.63
2018-08-31T09:10:04.433Z,9.63
2018-08-31T09:12:32.662Z,9.85
2018-08-31T09:15:01.194Z,9.30
2018-08-31T09:17:29.439Z,9.43
2018-08-31T09:19:57.678Z,9.63
2018-08-31T09:22:26.563Z,9.68
2018-08-31T09:24:54.859Z,9.38
2018-08-31T09:27:27.304Z,9.83
2018-08-31T09:29:56.273Z,9.55
2018-08-31T09:32:31.416Z,10.45
2018-08-31T09:35:00.306Z,9.58
2018-08-31T09:37:29.094Z,9.40
2018-08-31T09:39:57.851Z,9.93
2018-08-31T09:42:26.129Z,9.15
2018-08-31T09:44:54.378Z,10.28
2018-08-31T09:47:22.788Z,9.63
2018-08-31T09:49:51.565Z,9.70
2018-08-31T09:52:20.499Z,9.65
2018-08-31T09:54:48.798Z,9.08
2018-08-31T09:57:17.539Z,9.85
2018-08-31T09:59:45.762Z,9.85
2018-08-31T10:02:19.187Z,10.18
2018-08-31T10:04:52.050Z,9.58
2018-08-31T10:07:20.300Z,10.48
2018-08-31T10:09:48.585Z,9.78
2018-08-31T10:12:17.185Z,9.78
2018-08-31T10:14:46.198Z,9.28
2018-08-31T10:17:14.445Z,10.00
2018-08-31T10:19:43.440Z,9.25
2018-08-31T10:22:12.702Z,10.20
2018-08-31T10:24:41.102Z,10.08
2018-08-31T10:27:09.888Z,10.05
2018-08-31T10:29:38.351Z,9.43
2018-08-31T10:32:06.729Z,9.43
2018-08-31T10:34:35.246Z,10.13
2018-08-31T10:37:04.295Z,9.90
2018-08-31T10:39:32.992Z,9.35
2018-08-31T10:42:01.813Z,8.73
2018-08-31T10:44:30.087Z,9.53
2018-08-31T10:46:58.350Z,8.50
2018-08-31T10:49:26.634Z,9.23
2018-08-31T10:52:05.657Z,9.55
2018-08-31T10:54:33.966Z,9.78
2018-08-31T10:57:02.203Z,9.33
2018-08-31T10:59:30.494Z,8.65
2018-08-31T11:01:59.202Z,9.88
2018-08-31T11:04:27.483Z,10.35
2018-08-31T11:06:56.383Z,9.80
2018-08-31T11:09:24.649Z,9.53
2018-08-31T11:11:53.127Z,8.50
2018-08-31T11:14:21.741Z,9.48
2018-08-31T11:16:49.962Z,7.90
2018-08-31T11:19:18.203Z,10.13
2018-08-31T11:21:46.484Z,10.03
2018-08-31T11:24:14.732Z,9.55
2018-08-31T11:26:43.083Z,9.63
2018-08-31T11:29:11.512Z,8.68
2018-08-31T11:31:39.762Z,9.90
2018-08-31T11:34:08.410Z,11.00
2018-08-31T11:36:37.190Z,9.93
2018-08-31T11:39:08.655Z,10.50
2018-08-31T11:41:37.190Z,10.68
2018-08-31T11:44:05.514Z,8.68
2018-08-31T11:46:33.794Z,10.48
2018-08-31T11:49:02.085Z,10.00
2018-08-31T11:51:30.413Z,9.95
2018-08-31T11:53:59.125Z,9.00
2018-08-31T11:56:27.761Z,10.75
2018-08-31T11:58:56.017Z,10.35
2018-08-31T12:01:24.295Z,10.72
2018-08-31T12:03:52.584Z,10.32
2018-08-31T12:06:21.089Z,10.72
2018-08-31T12:08:49.734Z,9.68
2018-08-31T12:11:17.982Z,10.78
2018-08-31T12:13:46.249Z,10.08
2018-08-31T12:16:15.025Z,10.70
2018-08-31T12:18:43.273Z,10.65
2018-08-31T12:21:11.522Z,10.13
2018-08-31T12:23:39.852Z,10.28
2018-08-31T12:26:08.100Z,9.83
2018-08-31T12:28:36.401Z,10.35
2018-08-31T12:31:04.818Z,9.63
2018-08-31T12:33:33.960Z,9.33
2018-08-31T12:36:02.858Z,9.20
2018-08-31T12:38:31.178Z,8.90
2018-08-31T12:40:59.779Z,8.73
2018-08-31T12:43:28.300Z,9.45
2018-08-31T12:45:57.013Z,9.25
2018-08-31T12:48:25.243Z,9.58
2018-08-31T12:50:53.483Z,9.20
2018-08-31T12:53:22.294Z,10.38
2018-08-31T12:55:51.573Z,8.90
2018-08-31T12:58:19.797Z,9.18
2018-08-31T13:00:48.045Z,9.13
2018-08-31T13:03:16.323Z,10.05
2018-08-31T13:05:45.200Z,10.68
2018-08-31T13:08:13.446Z,10.85
2018-08-31T13:10:41.703Z,11.15
2018-08-31T13:13:09.996Z,10.35
2018-08-31T13:15:38.861Z,9.48
2018-08-31T13:18:07.111Z,10.25
2018-08-31T13:20:35.396Z,9.43
2018-08-31T13:23:03.647Z,11.28
2018-08-31T13:25:32.826Z,10.60
2018-08-31T13:28:01.088Z,10.40
2018-08-31T13:30:29.350Z,10.40
2018-08-31T13:32:58.027Z,10.93
2018-08-31T13:35:26.266Z,10.90
2018-08-31T13:37:55.308Z,10.50
2018-08-31T13:40:24.170Z,11.45
2018-08-31T13:42:53.263Z,10.80
2018-08-31T13:45:21.501Z,10.78
2018-08-31T13:47:49.740Z,10.55
2018-08-31T13:50:18.153Z,10.50
2018-08-31T13:52:47.133Z,11.28
2018-08-31T13:55:15.368Z,11.43
2018-08-31T13:57:43.636Z,11.30
2018-08-31T14:00:12.074Z,11.78
2018-08-31T14:02:40.374Z,12.03
2018-08-31T14:05:09.170Z,11.80
2018-08-31T14:07:37.445Z,11.57
2018-08-31T14:10:05.814Z,11.05
2018-08-31T14:12:34.111Z,12.10
2018-08-31T14:15:02.910Z,11.90
2018-08-31T14:17:32.489Z,12.07
2018-08-31T14:20:00.735Z,11.80
2018-08-31T14:22:29.026Z,11.60
2018-08-31T14:24:58.018Z,11.93
2018-08-31T14:27:26.303Z,12.05
2018-08-31T14:29:55.187Z,12.30
2018-08-31T14:32:23.269Z,11.70
2018-08-31T14:34:51.539Z,12.53
2018-08-31T14:37:20.660Z,12.15
2018-08-31T14:39:49.692Z,12.82
2018-08-31T14:42:17.950Z,12.28
2018-08-31T14:44:46.185Z,12.33
2018-08-31T14:47:14.461Z,14.25
2018-08-31T14:49:42.752Z,12.28
2018-08-31T14:52:11.465Z,12.68
2018-08-31T14:54:39.730Z,13.30
2018-08-31T14:57:08.010Z,14.13
2018-08-31T14:59:36.289Z,12.98
2018-08-31T15:02:04.654Z,13.05
2018-08-31T15:04:33.099Z,14.35
2018-08-31T15:07:01.806Z,14.28
2018-08-31T15:09:30.429Z,14.18
2018-08-31T15:11:58.711Z,14.20
2018-08-31T15:14:27.437Z,13.32
2018-08-31T15:16:58.514Z,13.40
2018-08-31T15:19:27.021Z,13.22
2018-08-31T15:21:58.978Z,13.28
2018-08-31T15:24:34.710Z,13.25
2018-08-31T15:27:03.342Z,12.85
2018-08-31T15:29:31.652Z,13.75
2018-08-31T15:31:59.990Z,12.60
2018-08-31T15:34:28.298Z,13.05
2018-08-31T15:36:56.982Z,13.50
2018-08-31T15:39:25.986Z,13.35
2018-08-31T15:41:54.265Z,14.35
2018-08-31T15:44:22.616Z,13.40
2018-08-31T15:46:50.874Z,14.60
2018-08-31T15:51:47.323Z,14.90
2018-08-31T15:54:16.042Z,15.55
2018-08-31T15:56:44.329Z,15.08
2018-08-31T15:59:12.599Z,14.63
2018-08-31T16:01:41.459Z,15.18
2018-08-31T16:04:10.021Z,14.18
2018-08-31T16:06:38.705Z,14.15
2018-08-31T16:09:19.387Z,16.30
2018-08-31T16:11:47.625Z,14.43
2018-08-31T16:14:16.192Z,14.28
2018-08-31T16:16:44.428Z,13.62
2018-08-31T16:19:13.057Z,14.80
2018-08-31T16:21:41.319Z,14.07
2018-08-31T16:24:09.628Z,13.38
2018-08-31T16:26:38.146Z,14.00
2018-08-31T16:29:06.525Z,13.88
2018-08-31T16:31:35.146Z,14.13
2018-08-31T16:34:03.402Z,13.70
2018-08-31T16:36:31.978Z,12.75
2018-08-31T16:39:00.827Z,14.03
2018-08-31T16:41:29.021Z,13.00
2018-08-31T16:43:57.274Z,14.13
2018-08-31T16:46:25.524Z,14.90
2018-08-31T16:48:53.810Z,15.15
2018-08-31T16:51:22.788Z,16.25
2018-08-31T16:53:51.175Z,17.75
2018-08-31T16:56:19.985Z,17.27
2018-08-31T16:58:48.232Z,17.17
2018-08-31T17:01:16.514Z,15.55
2018-08-31T17:03:44.841Z,13.88
2018-08-31T17:06:13.533Z,17.32
2018-08-31T17:08:41.807Z,15.25
2018-08-31T17:11:10.077Z,14.18
2018-08-31T17:13:38.369Z,12.75
2018-08-31T17:16:07.349Z,12.07
2018-08-31T17:18:35.598Z,13.13
2018-08-31T17:21:03.847Z,13.20
2018-08-31T17:23:32.121Z,11.80
2018-08-31T17:26:01.501Z,13.62
2018-08-31T17:28:35.102Z,14.47
2018-08-31T17:31:09.537Z,18.32
2018-08-31T17:33:43.724Z,18.45
2018-08-31T17:36:18.775Z,21.68
2018-08-31T17:38:47.508Z,19.70
2018-08-31T17:41:16.127Z,16.60
2018-08-31T17:43:44.447Z,19.07
2018-08-31T17:46:12.462Z,16.85
2018-08-31T17:48:41.379Z,15.15
2018-08-31T17:51:10.112Z,13.58
2018-08-31T17:53:38.737Z,14.45
2018-08-31T17:56:07.017Z,13.55
2018-08-31T17:58:35.577Z,13.45
2018-08-31T18:01:03.878Z,13.18
2018-08-31T18:03:32.139Z,12.98
2018-08-31T18:06:00.722Z,11.90
2018-08-31T18:08:29.140Z,10.55
2018-08-31T18:10:57.602Z,9.70
2018-08-31T18:13:25.944Z,10.00
2018-08-31T18:15:55.080Z,9.48
2018-08-31T18:18:23.277Z,9.23
2018-08-31T18:20:51.579Z,10.60
2018-08-31T18:23:19.868Z,15.30
2018-08-31T18:25:48.546Z,14.33
2018-08-31T18:28:17.149Z,13.83
2018-08-31T18:30:45.618Z,12.60
2018-08-31T18:33:14.554Z,11.97
2018-08-31T18:35:49.906Z,11.43
2018-08-31T18:38:18.665Z,13.43
2018-08-31T18:40:47.654Z,12.97
2018-08-31T18:45:48.230Z,15.88
2018-08-31T18:48:24.914Z,12.40
2018-08-31T18:50:54.177Z,16.00
2018-08-31T18:53:23.145Z,14.85
2018-08-31T18:55:51.403Z,14.85
2018-08-31T18:58:19.633Z,16.17
2018-08-31T19:00:47.914Z,16.40
2018-08-31T19:03:16.190Z,17.20
2018-08-31T19:05:45.293Z,16.65
2018-08-31T19:08:13.547Z,22.73
2018-08-31T19:10:41.805Z,22.20
2018-08-31T19:13:10.106Z,25.27
2018-08-31T19:15:38.942Z,20.17
2018-08-31T19:18:07.301Z,16.05
2018-08-31T19:20:35.985Z,17.52
2018-08-31T19:23:04.299Z,18.00
2018-08-31T19:25:45.192Z,18.95
2018-08-31T19:28:13.493Z,18.17
2018-08-31T19:30:42.511Z,19.05
2018-08-31T19:33:11.042Z,16.53
2018-08-31T19:38:07.168Z,18.85
2018-08-31T19:40:36.014Z,18.70
2018-08-31T19:43:04.269Z,19.90
2018-08-31T19:45:32.525Z,16.20
2018-08-31T19:48:01.055Z,16.90
2018-08-31T19:50:29.671Z,20.83
2018-08-31T19:52:58.677Z,17.13
2018-08-31T19:55:27.059Z,16.55
2018-08-31T19:57:55.285Z,19.27
2018-08-31T20:00:24.079Z,18.75
2018-08-31T20:02:52.374Z,16.83
2018-08-31T20:05:21.007Z,19.87
2018-08-31T20:07:49.356Z,19.05
2018-08-31T20:10:17.649Z,17.57
2018-08-31T20:12:46.389Z,17.57
2018-08-31T20:15:15.180Z,18.17
2018-08-31T20:17:43.494Z,17.70
2018-08-31T20:20:12.026Z,16.20
2018-08-31T20:22:41.018Z,16.70
2018-08-31T20:25:09.714Z,17.02
2018-08-31T20:27:38.505Z,17.23
2018-08-31T20:30:06.974Z,16.10
2018-08-31T20:32:35.824Z,18.73
2018-08-31T20:35:04.117Z,16.90
2018-08-31T20:37:32.927Z,17.23
2018-08-31T20:40:01.673Z,15.68
2018-08-31T20:42:29.953Z,16.73
2018-08-31T20:44:58.162Z,20.57
2018-08-31T20:47:26.493Z,15.68
2018-08-31T20:49:55.071Z,16.47
2018-08-31T20:52:23.593Z,16.07
2018-08-31T20:54:51.838Z,16.27
2018-08-31T20:57:20.086Z,17.80
2018-08-31T20:59:48.717Z,18.10
2018-08-31T21:02:17.126Z,16.17
2018-08-31T21:04:51.650Z,15.95
2018-08-31T21:07:19.926Z,17.90
2018-08-31T21:09:48.514Z,16.13
2018-08-31T21:12:17.536Z,15.17
2018-08-31T21:14:46.409Z,16.10
2018-08-31T21:17:14.694Z,15.53
2018-08-31T21:19:42.962Z,15.15
2018-08-31T21:22:11.290Z,14.80
2018-08-31T21:24:39.592Z,16.85
2018-08-31T21:27:08.210Z,15.43
2018-08-31T21:32:03.031Z,14.80
2018-08-31T21:34:31.261Z,14.95
2018-08-31T21:36:59.817Z,16.15
2018-08-31T21:39:28.552Z,15.20
2018-08-31T21:41:56.831Z,16.67
2018-08-31T21:44:25.095Z,17.77
2018-08-31T21:46:53.430Z,13.98
2018-08-31T21:49:21.738Z,13.97
2018-08-31T21:54:24.317Z,14.87
2018-08-31T21:56:52.902Z,13.55
2018-08-31T21:59:21.513Z,13.55
2018-08-31T22:01:54.373Z,13.58
2018-08-31T22:04:22.857Z,12.93
2018-08-31T22:06:51.469Z,15.30
2018-08-31T22:09:19.756Z,13.13
2018-08-31T22:11:48.481Z,12.82
2018-08-31T22:14:17.133Z,15.37
2018-08-31T22:16:45.473Z,13.80
2018-08-31T22:19:13.729Z,12.85
2018-08-31T22:21:42.027Z,12.18
2018-08-31T22:24:10.286Z,13.53
2018-08-31T22:26:38.976Z,12.33
2018-08-31T22:29:07.222Z,11.55
2018-08-31T22:31:35.882Z,11.80
2018-08-31T22:34:04.251Z,11.83
2018-08-31T22:36:33.832Z,11.65
2018-08-31T22:39:02.654Z,11.73
2018-08-31T22:41:31.342Z,11.30
2018-08-31T22:43:59.614Z,11.28
2018-08-31T22:46:27.896Z,12.60
2018-08-31T22:48:56.171Z,12.40
2018-08-31T22:51:24.717Z,11.53
2018-08-31T22:53:53.314Z,13.40
2018-08-31T22:56:21.629Z,12.00
2018-08-31T22:58:50.391Z,11.10
2018-08-31T23:01:18.868Z,10.43
2018-08-31T23:03:47.470Z,10.43
2018-08-31T23:06:16.081Z,9.93
2018-08-31T23:08:44.369Z,10.17
2018-08-31T23:11:12.706Z,10.30
2018-08-31T23:13:42.851Z,9.70
2018-08-31T23:16:11.591Z,9.63
2018-08-31T23:18:40.074Z,11.33
2018-08-31T23:21:09.090Z,10.13
2018-08-31T23:23:42.790Z,9.83
2018-08-31T23:26:11.606Z,10.07
2018-08-31T23:28:39.876Z,9.53
2018-08-31T23:31:08.342Z,8.80
2018-08-31T23:33:37.475Z,10.00
2018-08-31T23:36:06.353Z,9.30
2018-08-31T23:38:34.613Z,9.30
2018-08-31T23:41:03.420Z,9.00
2018-08-31T23:43:31.656Z,8.27
2018-08-31T23:45:59.894Z,6.90
2018-08-31T23:48:28.157Z,7.47
2018-08-31T23:50:57.186Z,7.90
2018-08-31T23:53:25.931Z,8.23
2018-08-31T23:55:54.403Z,8.30
2018-08-31T23:58:23.145Z,7.22
